NMB286 EDDF-FYWH
Flight info
| Callsign | NMB286 |
|---|---|
| Flight time | N/A |
| Altitude | 39000 |
| Route | ANEKI2L ANEKI Y163 NATOR DCT TRA DCT RIPUS DCT GERSA DCT SOSON DCT ODINA DCT PIDAD DCT TALEP/N0477F350 DCT VAREK DCT ERPIN DCT ETOIL DCT CIRTA UA605 CSO UM2 DJA UB730 DIR/N0480F370 UA607 FL UA403 BZ/N0473F390 DCT KSA UT943 VEDRY DCT |
| Aircraft | MD11/H-SDE1E2E3FGHIJ2J3J4J5M1RWXY/LB1D1 |
Departure
| Time | N/A |
|---|---|
| Airport | Frankfurt Main Airport (EDDF) |
Arrival
| Time | 2026-04-18 20:37 |
|---|---|
| Airport | Hosea Kutako International Airport (FYWH) |
| Time | Latitude | Longitude | Altitude | Speed | Heading |
|---|---|---|---|---|---|
| 2026-04-18 20:15 | -21.34488 | 17.32909 | 31347 ft | 492 kts | 181° |
| 2026-04-18 20:15 | -21.37901 | 17.33336 | 30755 ft | 494 kts | 181° |
| 2026-04-18 20:16 | -21.41325 | 17.33764 | 30167 ft | 497 kts | 181° |
| 2026-04-18 20:16 | -21.44778 | 17.34196 | 29507 ft | 500 kts | 181° |
| 2026-04-18 20:16 | -21.48236 | 17.34629 | 28869 ft | 501 kts | 180° |
| 2026-04-18 20:16 | -21.51720 | 17.35066 | 28250 ft | 502 kts | 180° |
| 2026-04-18 20:17 | -21.55192 | 17.35502 | 27674 ft | 503 kts | 180° |
| 2026-04-18 20:17 | -21.58665 | 17.35938 | 27059 ft | 503 kts | 180° |
| 2026-04-18 20:17 | -21.62104 | 17.36369 | 26437 ft | 503 kts | 179° |
| 2026-04-18 20:17 | -21.65579 | 17.36806 | 25802 ft | 502 kts | 179° |
| 2026-04-18 20:18 | -21.69031 | 17.37242 | 25169 ft | 497 kts | 179° |
| 2026-04-18 20:18 | -21.72454 | 17.37676 | 24540 ft | 491 kts | 178° |
| 2026-04-18 20:18 | -21.75827 | 17.38102 | 23919 ft | 484 kts | 178° |
| 2026-04-18 20:18 | -21.79161 | 17.38523 | 23271 ft | 478 kts | 178° |
| 2026-04-18 20:19 | -21.82441 | 17.38935 | 22593 ft | 472 kts | 178° |
| 2026-04-18 20:19 | -21.85678 | 17.39342 | 21973 ft | 466 kts | 178° |
| 2026-04-18 20:19 | -21.88882 | 17.39744 | 21371 ft | 461 kts | 178° |
| 2026-04-18 20:19 | -21.92015 | 17.40138 | 20784 ft | 456 kts | 178° |
| 2026-04-18 20:20 | -21.95151 | 17.40531 | 20211 ft | 452 kts | 178° |
| 2026-04-18 20:20 | -21.98258 | 17.40922 | 19641 ft | 448 kts | 177° |
| 2026-04-18 20:20 | -22.01348 | 17.41310 | 19069 ft | 444 kts | 177° |
| 2026-04-18 20:20 | -22.04414 | 17.41696 | 18499 ft | 441 kts | 177° |
| 2026-04-18 20:21 | -22.07452 | 17.42078 | 17903 ft | 438 kts | 177° |
| 2026-04-18 20:21 | -22.10466 | 17.42458 | 17298 ft | 434 kts | 177° |
| 2026-04-18 20:21 | -22.13447 | 17.42835 | 16728 ft | 430 kts | 177° |
| 2026-04-18 20:21 | -22.16402 | 17.43207 | 16179 ft | 426 kts | 177° |
| 2026-04-18 20:22 | -22.19336 | 17.43578 | 15633 ft | 421 kts | 176° |
| 2026-04-18 20:22 | -22.22217 | 17.43995 | 15106 ft | 417 kts | 171° |
| 2026-04-18 20:22 | -22.24908 | 17.45048 | 14590 ft | 421 kts | 153° |
| 2026-04-18 20:22 | -22.27228 | 17.46950 | 14226 ft | 416 kts | 134° |
| 2026-04-18 20:23 | -22.28892 | 17.49508 | 14045 ft | 418 kts | 116° |
| 2026-04-18 20:23 | -22.30037 | 17.52380 | 13877 ft | 417 kts | 109° |
| 2026-04-18 20:23 | -22.31008 | 17.55330 | 13699 ft | 416 kts | 108° |
| 2026-04-18 20:23 | -22.31917 | 17.58253 | 13514 ft | 414 kts | 107° |
| 2026-04-18 20:24 | -22.32822 | 17.61209 | 13319 ft | 413 kts | 107° |
| 2026-04-18 20:24 | -22.33722 | 17.64153 | 13130 ft | 411 kts | 107° |
| 2026-04-18 20:24 | -22.34614 | 17.67072 | 12944 ft | 409 kts | 107° |
| 2026-04-18 20:24 | -22.35182 | 17.70068 | 12743 ft | 404 kts | 90° |
| 2026-04-18 20:25 | -22.34894 | 17.73041 | 12549 ft | 395 kts | 71° |
| 2026-04-18 20:25 | -22.33771 | 17.75697 | 12348 ft | 383 kts | 51° |
| 2026-04-18 20:25 | -22.32050 | 17.77790 | 11517 ft | 368 kts | 36° |
| 2026-04-18 20:25 | -22.29992 | 17.79385 | 10592 ft | 360 kts | 29° |
| 2026-04-18 20:26 | -22.27903 | 17.80769 | 9747 ft | 354 kts | 27° |
| 2026-04-18 20:26 | -22.25858 | 17.82066 | 9568 ft | 328 kts | 27° |
| 2026-04-18 20:26 | -22.23963 | 17.83270 | 9432 ft | 304 kts | 27° |
| 2026-04-18 20:26 | -22.22312 | 17.84558 | 9284 ft | 287 kts | 43° |
| 2026-04-18 20:27 | -22.21264 | 17.86368 | 8912 ft | 287 kts | 68° |
| 2026-04-18 20:27 | -22.21026 | 17.88510 | 8551 ft | 296 kts | 94° |
| 2026-04-18 20:27 | -22.21648 | 17.90642 | 8191 ft | 300 kts | 119° |
| 2026-04-18 20:27 | -22.23031 | 17.92304 | 7956 ft | 297 kts | 146° |
| 2026-04-18 20:28 | -22.24879 | 17.93165 | 7929 ft | 293 kts | 172° |
| 2026-04-18 20:28 | -22.26884 | 17.93126 | 7920 ft | 287 kts | 198° |
| 2026-04-18 20:28 | -22.28645 | 17.92205 | 7869 ft | 280 kts | 223° |
| 2026-04-18 20:28 | -22.29829 | 17.90595 | 7838 ft | 272 kts | 248° |
| 2026-04-18 20:29 | -22.30455 | 17.88672 | 7840 ft | 271 kts | 257° |
| 2026-04-18 20:29 | -22.31021 | 17.86730 | 7829 ft | 273 kts | 251° |
| 2026-04-18 20:29 | -22.31775 | 17.84854 | 7833 ft | 273 kts | 249° |
| 2026-04-18 20:29 | -22.32561 | 17.82989 | 7830 ft | 273 kts | 249° |
| 2026-04-18 20:30 | -22.33324 | 17.81115 | 7835 ft | 273 kts | 250° |
| 2026-04-18 20:30 | -22.34074 | 17.79237 | 7859 ft | 272 kts | 250° |
| 2026-04-18 20:30 | -22.34820 | 17.77356 | 7832 ft | 272 kts | 250° |
| 2026-04-18 20:30 | -22.35540 | 17.75539 | 7828 ft | 254 kts | 250° |
| 2026-04-18 20:31 | -22.36198 | 17.73887 | 7822 ft | 223 kts | 251° |
| 2026-04-18 20:31 | -22.36769 | 17.72449 | 7832 ft | 205 kts | 251° |
| 2026-04-18 20:31 | -22.37311 | 17.71065 | 7827 ft | 199 kts | 251° |
| 2026-04-18 20:31 | -22.37831 | 17.69682 | 7838 ft | 197 kts | 253° |
| 2026-04-18 20:32 | -22.38162 | 17.68769 | 7827 ft | 196 kts | 252° |
| 2026-04-18 20:32 | -22.38696 | 17.67404 | 7837 ft | 198 kts | 250° |
| 2026-04-18 20:32 | -22.39277 | 17.66056 | 7836 ft | 198 kts | 248° |
| 2026-04-18 20:32 | -22.39907 | 17.64727 | 7831 ft | 199 kts | 248° |
| 2026-04-18 20:33 | -22.40532 | 17.63393 | 7840 ft | 199 kts | 248° |
| 2026-04-18 20:33 | -22.41133 | 17.62099 | 7803 ft | 184 kts | 248° |
| 2026-04-18 20:33 | -22.41663 | 17.60948 | 7776 ft | 167 kts | 250° |
| 2026-04-18 20:33 | -22.42155 | 17.59831 | 7558 ft | 162 kts | 249° |
| 2026-04-18 20:34 | -22.42649 | 17.58747 | 7363 ft | 160 kts | 248° |
| 2026-04-18 20:34 | -22.43142 | 17.57694 | 7158 ft | 158 kts | 248° |
| 2026-04-18 20:34 | -22.43628 | 17.56638 | 6955 ft | 157 kts | 248° |
| 2026-04-18 20:34 | -22.44111 | 17.55584 | 6775 ft | 156 kts | 248° |
| 2026-04-18 20:35 | -22.44590 | 17.54537 | 6570 ft | 154 kts | 248° |
| 2026-04-18 20:35 | -22.45048 | 17.53533 | 6398 ft | 152 kts | 248° |
| 2026-04-18 20:35 | -22.45504 | 17.52501 | 6208 ft | 152 kts | 249° |
| 2026-04-18 20:35 | -22.45979 | 17.51474 | 6006 ft | 154 kts | 246° |
| 2026-04-18 20:36 | -22.46470 | 17.50436 | 5852 ft | 159 kts | 245° |
| 2026-04-18 20:36 | -22.46954 | 17.49362 | 5656 ft | 159 kts | 245° |
| 2026-04-18 20:36 | -22.47425 | 17.48321 | 5566 ft | 138 kts | 245° |
| 2026-04-18 20:36 | -22.47765 | 17.47577 | 5576 ft | 82 kts | 243° |
| 2026-04-18 20:37 | -22.47944 | 17.47192 | 5583 ft | 46 kts | 243° |
| 2026-04-18 20:37 | -22.48075 | 17.46907 | 5596 ft | 39 kts | 244° |
| 2026-04-18 20:37 | -22.48185 | 17.46665 | 5599 ft | 33 kts | 244° |
| 2026-04-18 20:37 | -22.48282 | 17.46456 | 5604 ft | 29 kts | 243° |
| 2026-04-18 20:38 | -22.48352 | 17.46311 | 5613 ft | 10 kts | 237° |
| 2026-04-18 20:38 | -22.48377 | 17.46291 | 5609 ft | 4 kts | 200° |
| 2026-04-18 20:38 | -22.48418 | 17.46297 | 5605 ft | 0 kts | 156° |
| 2026-04-18 20:38 | -22.48438 | 17.46306 | 5610 ft | 0 kts | 161° |
| 2026-04-18 20:39 | -22.48452 | 17.46306 | 5610 ft | 3 kts | 185° |
| 2026-04-18 20:39 | -22.48480 | 17.46281 | 5610 ft | 6 kts | 223° |
| 2026-04-18 20:39 | -22.48489 | 17.46277 | 5612 ft | 3 kts | 206° |
| 2026-04-18 20:39 | -22.48522 | 17.46278 | 5610 ft | 6 kts | 168° |
| 2026-04-18 20:40 | -22.48564 | 17.46298 | 5614 ft | 10 kts | 155° |
| 2026-04-18 20:40 | -22.48594 | 17.46305 | 5613 ft | 2 kts | 191° |
| 2026-04-18 20:40 | -22.48614 | 17.46290 | 5610 ft | 6 kts | 216° |
| 2026-04-18 20:40 | -22.48632 | 17.46265 | 5613 ft | 3 kts | 248° |
| 2026-04-18 20:41 | -22.48629 | 17.46242 | 5613 ft | 2 kts | 294° |
| 2026-04-18 20:41 | -22.48611 | 17.46225 | 5614 ft | 0 kts | 332° |